sensor_id;sensor_type;location;lat;lon;timestamp;P1;durP1;ratioP1;P2;durP2;ratioP2
47489;SDS011;33226;56.996;14.584;2022-08-19T00:01:39;13.13;;;11.95;;
47489;SDS011;33226;56.996;14.584;2022-08-19T00:04:08;12.82;;;11.52;;
47489;SDS011;33226;56.996;14.584;2022-08-19T00:06:36;12.32;;;11.05;;
47489;SDS011;33226;56.996;14.584;2022-08-19T00:09:03;13.27;;;12.02;;
47489;SDS011;33226;56.996;14.584;2022-08-19T00:11:31;13.52;;;11.95;;
47489;SDS011;33226;56.996;14.584;2022-08-19T00:13:59;14.40;;;11.70;;
47489;SDS011;33226;56.996;14.584;2022-08-19T00:16:25;12.68;;;11.20;;
47489;SDS011;33226;56.996;14.584;2022-08-19T00:18:51;11.75;;;10.75;;
47489;SDS011;33226;56.996;14.584;2022-08-19T00:21:18;11.77;;;10.57;;
47489;SDS011;33226;56.996;14.584;2022-08-19T00:23:43;12.77;;;11.52;;
47489;SDS011;33226;56.996;14.584;2022-08-19T00:26:09;12.20;;;10.95;;
47489;SDS011;33226;56.996;14.584;2022-08-19T00:28:36;12.20;;;11.30;;
47489;SDS011;33226;56.996;14.584;2022-08-19T00:31:03;12.52;;;11.40;;
47489;SDS011;33226;56.996;14.584;2022-08-19T00:33:29;12.52;;;11.48;;
47489;SDS011;33226;56.996;14.584;2022-08-19T00:35:58;13.07;;;11.88;;
47489;SDS011;33226;56.996;14.584;2022-08-19T00:38:24;12.95;;;11.93;;
47489;SDS011;33226;56.996;14.584;2022-08-19T00:40:50;12.52;;;11.52;;
47489;SDS011;33226;56.996;14.584;2022-08-19T00:43:18;13.00;;;11.20;;
47489;SDS011;33226;56.996;14.584;2022-08-19T00:45:46;11.48;;;10.35;;
47489;SDS011;33226;56.996;14.584;2022-08-19T00:48:12;13.75;;;11.40;;
47489;SDS011;33226;56.996;14.584;2022-08-19T00:50:40;12.40;;;11.20;;
47489;SDS011;33226;56.996;14.584;2022-08-19T00:53:08;12.88;;;10.70;;
47489;SDS011;33226;56.996;14.584;2022-08-19T00:55:35;12.25;;;10.98;;
47489;SDS011;33226;56.996;14.584;2022-08-19T00:58:04;12.82;;;11.52;;
47489;SDS011;33226;56.996;14.584;2022-08-19T01:00:34;13.43;;;12.38;;
47489;SDS011;33226;56.996;14.584;2022-08-19T01:03:02;13.40;;;12.10;;
47489;SDS011;33226;56.996;14.584;2022-08-19T01:05:30;13.50;;;12.15;;
47489;SDS011;33226;56.996;14.584;2022-08-19T01:07:56;13.60;;;12.38;;
47489;SDS011;33226;56.996;14.584;2022-08-19T01:10:25;14.77;;;13.18;;
47489;SDS011;33226;56.996;14.584;2022-08-19T01:12:54;13.45;;;12.20;;
47489;SDS011;33226;56.996;14.584;2022-08-19T01:15:22;12.82;;;11.52;;
47489;SDS011;33226;56.996;14.584;2022-08-19T01:17:52;12.27;;;11.18;;
47489;SDS011;33226;56.996;14.584;2022-08-19T01:20:20;11.90;;;11.00;;
47489;SDS011;33226;56.996;14.584;2022-08-19T01:22:49;14.25;;;12.80;;
47489;SDS011;33226;56.996;14.584;2022-08-19T01:25:19;15.52;;;13.95;;
47489;SDS011;33226;56.996;14.584;2022-08-19T01:27:48;12.30;;;10.95;;
47489;SDS011;33226;56.996;14.584;2022-08-19T01:30:17;13.68;;;12.52;;
47489;SDS011;33226;56.996;14.584;2022-08-19T01:32:47;13.80;;;12.40;;
47489;SDS011;33226;56.996;14.584;2022-08-19T01:35:14;13.82;;;12.32;;
47489;SDS011;33226;56.996;14.584;2022-08-19T01:37:56;13.32;;;12.02;;
47489;SDS011;33226;56.996;14.584;2022-08-19T01:40:25;16.75;;;12.98;;
47489;SDS011;33226;56.996;14.584;2022-08-19T01:42:53;13.90;;;12.57;;
47489;SDS011;33226;56.996;14.584;2022-08-19T01:45:19;13.40;;;12.30;;
47489;SDS011;33226;56.996;14.584;2022-08-19T01:47:46;13.95;;;12.70;;
47489;SDS011;33226;56.996;14.584;2022-08-19T01:50:13;13.90;;;12.80;;
47489;SDS011;33226;56.996;14.584;2022-08-19T01:52:39;12.77;;;11.68;;
47489;SDS011;33226;56.996;14.584;2022-08-19T01:55:10;13.02;;;11.70;;
47489;SDS011;33226;56.996;14.584;2022-08-19T01:57:38;12.43;;;11.27;;
47489;SDS011;33226;56.996;14.584;2022-08-19T02:00:06;13.80;;;12.40;;
47489;SDS011;33226;56.996;14.584;2022-08-19T02:02:34;12.68;;;11.57;;
47489;SDS011;33226;56.996;14.584;2022-08-19T02:05:00;13.30;;;12.07;;
47489;SDS011;33226;56.996;14.584;2022-08-19T02:07:25;12.52;;;11.27;;
47489;SDS011;33226;56.996;14.584;2022-08-19T02:09:53;12.80;;;11.48;;
47489;SDS011;33226;56.996;14.584;2022-08-19T02:12:19;13.43;;;12.02;;
47489;SDS011;33226;56.996;14.584;2022-08-19T02:14:45;14.77;;;11.75;;
47489;SDS011;33226;56.996;14.584;2022-08-19T02:17:12;13.25;;;11.98;;
47489;SDS011;33226;56.996;14.584;2022-08-19T02:19:37;12.88;;;11.68;;
47489;SDS011;33226;56.996;14.584;2022-08-19T02:22:03;12.82;;;11.73;;
47489;SDS011;33226;56.996;14.584;2022-08-19T02:24:29;12.45;;;11.40;;
47489;SDS011;33226;56.996;14.584;2022-08-19T02:26:55;12.68;;;11.48;;
47489;SDS011;33226;56.996;14.584;2022-08-19T02:29:20;13.07;;;11.80;;
47489;SDS011;33226;56.996;14.584;2022-08-19T02:31:46;13.40;;;12.27;;
47489;SDS011;33226;56.996;14.584;2022-08-19T02:34:12;13.18;;;12.10;;
47489;SDS011;33226;56.996;14.584;2022-08-19T02:36:37;13.25;;;12.07;;
47489;SDS011;33226;56.996;14.584;2022-08-19T02:39:04;13.77;;;12.48;;
47489;SDS011;33226;56.996;14.584;2022-08-19T02:41:30;12.88;;;11.57;;
47489;SDS011;33226;56.996;14.584;2022-08-19T02:43:58;12.52;;;11.27;;
47489;SDS011;33226;56.996;14.584;2022-08-19T02:46:30;12.35;;;11.20;;
47489;SDS011;33226;56.996;14.584;2022-08-19T02:48:57;13.63;;;11.40;;
47489;SDS011;33226;56.996;14.584;2022-08-19T02:51:30;13.32;;;12.10;;
47489;SDS011;33226;56.996;14.584;2022-08-19T02:53:57;12.93;;;11.57;;
47489;SDS011;33226;56.996;14.584;2022-08-19T02:56:24;12.07;;;11.00;;
47489;SDS011;33226;56.996;14.584;2022-08-19T02:58:52;12.80;;;11.77;;
47489;SDS011;33226;56.996;14.584;2022-08-19T03:01:20;15.43;;;11.23;;
47489;SDS011;33226;56.996;14.584;2022-08-19T03:03:49;11.52;;;10.13;;
47489;SDS011;33226;56.996;14.584;2022-08-19T03:06:16;12.10;;;11.00;;
47489;SDS011;33226;56.996;14.584;2022-08-19T03:08:43;13.27;;;12.07;;
47489;SDS011;33226;56.996;14.584;2022-08-19T03:11:14;13.30;;;12.10;;
47489;SDS011;33226;56.996;14.584;2022-08-19T03:13:51;12.02;;;10.93;;
47489;SDS011;33226;56.996;14.584;2022-08-19T03:16:18;12.70;;;10.68;;
47489;SDS011;33226;56.996;14.584;2022-08-19T03:18:45;12.32;;;11.15;;
47489;SDS011;33226;56.996;14.584;2022-08-19T03:21:17;14.13;;;10.80;;
47489;SDS011;33226;56.996;14.584;2022-08-19T03:23:45;12.48;;;11.32;;
47489;SDS011;33226;56.996;14.584;2022-08-19T03:26:11;14.63;;;12.02;;
47489;SDS011;33226;56.996;14.584;2022-08-19T03:28:36;11.98;;;10.88;;
47489;SDS011;33226;56.996;14.584;2022-08-19T03:33:30;12.68;;;11.57;;
47489;SDS011;33226;56.996;14.584;2022-08-19T03:36:13;13.27;;;11.98;;
47489;SDS011;33226;56.996;14.584;2022-08-19T03:38:47;13.20;;;11.75;;
47489;SDS011;33226;56.996;14.584;2022-08-19T03:41:16;12.13;;;10.95;;
47489;SDS011;33226;56.996;14.584;2022-08-19T03:43:47;12.25;;;11.00;;
47489;SDS011;33226;56.996;14.584;2022-08-19T03:46:17;13.57;;;11.80;;
47489;SDS011;33226;56.996;14.584;2022-08-19T03:48:47;13.10;;;11.82;;
47489;SDS011;33226;56.996;14.584;2022-08-19T03:51:23;13.98;;;12.60;;
47489;SDS011;33226;56.996;14.584;2022-08-19T03:53:52;12.65;;;11.52;;
47489;SDS011;33226;56.996;14.584;2022-08-19T03:56:19;13.40;;;12.20;;
47489;SDS011;33226;56.996;14.584;2022-08-19T03:58:44;13.15;;;12.02;;
47489;SDS011;33226;56.996;14.584;2022-08-19T04:01:11;13.52;;;12.23;;
47489;SDS011;33226;56.996;14.584;2022-08-19T04:03:42;13.77;;;11.02;;
47489;SDS011;33226;56.996;14.584;2022-08-19T04:06:12;11.05;;;10.00;;
47489;SDS011;33226;56.996;14.584;2022-08-19T04:08:43;12.48;;;11.48;;
47489;SDS011;33226;56.996;14.584;2022-08-19T04:11:11;11.80;;;10.80;;
47489;SDS011;33226;56.996;14.584;2022-08-19T04:13:38;12.95;;;10.85;;
47489;SDS011;33226;56.996;14.584;2022-08-19T04:16:04;12.13;;;11.10;;
47489;SDS011;33226;56.996;14.584;2022-08-19T04:18:31;12.63;;;11.63;;
47489;SDS011;33226;56.996;14.584;2022-08-19T04:20:59;11.63;;;10.55;;
47489;SDS011;33226;56.996;14.584;2022-08-19T04:23:25;11.60;;;10.60;;
47489;SDS011;33226;56.996;14.584;2022-08-19T04:25:53;12.85;;;11.63;;
47489;SDS011;33226;56.996;14.584;2022-08-19T04:28:19;12.40;;;11.30;;
47489;SDS011;33226;56.996;14.584;2022-08-19T04:30:48;11.95;;;10.85;;
47489;SDS011;33226;56.996;14.584;2022-08-19T04:33:18;12.50;;;11.50;;
47489;SDS011;33226;56.996;14.584;2022-08-19T04:35:45;13.82;;;12.18;;
47489;SDS011;33226;56.996;14.584;2022-08-19T04:38:12;15.10;;;12.05;;
47489;SDS011;33226;56.996;14.584;2022-08-19T04:40:45;13.20;;;11.93;;
47489;SDS011;33226;56.996;14.584;2022-08-19T04:43:32;14.05;;;12.85;;
47489;SDS011;33226;56.996;14.584;2022-08-19T04:46:03;13.07;;;11.93;;
47489;SDS011;33226;56.996;14.584;2022-08-19T04:48:31;14.02;;;12.55;;
47489;SDS011;33226;56.996;14.584;2022-08-19T04:50:57;12.85;;;11.68;;
47489;SDS011;33226;56.996;14.584;2022-08-19T04:53:30;13.65;;;12.05;;
47489;SDS011;33226;56.996;14.584;2022-08-19T04:55:58;13.95;;;12.63;;
47489;SDS011;33226;56.996;14.584;2022-08-19T04:58:28;14.73;;;13.38;;
47489;SDS011;33226;56.996;14.584;2022-08-19T05:00:54;15.25;;;13.20;;
47489;SDS011;33226;56.996;14.584;2022-08-19T05:03:20;14.80;;;12.60;;
47489;SDS011;33226;56.996;14.584;2022-08-19T05:05:46;15.82;;;13.43;;
47489;SDS011;33226;56.996;14.584;2022-08-19T05:08:14;14.23;;;12.70;;
47489;SDS011;33226;56.996;14.584;2022-08-19T05:10:45;15.35;;;13.77;;
47489;SDS011;33226;56.996;14.584;2022-08-19T05:13:15;14.13;;;12.70;;
47489;SDS011;33226;56.996;14.584;2022-08-19T05:15:43;14.43;;;13.02;;
47489;SDS011;33226;56.996;14.584;2022-08-19T05:18:09;13.98;;;12.73;;
47489;SDS011;33226;56.996;14.584;2022-08-19T05:20:54;14.07;;;12.68;;
47489;SDS011;33226;56.996;14.584;2022-08-19T05:23:38;14.88;;;12.23;;
47489;SDS011;33226;56.996;14.584;2022-08-19T05:26:04;14.52;;;13.32;;
47489;SDS011;33226;56.996;14.584;2022-08-19T05:28:30;14.38;;;13.18;;
47489;SDS011;33226;56.996;14.584;2022-08-19T05:30:55;13.75;;;12.55;;
47489;SDS011;33226;56.996;14.584;2022-08-19T05:33:22;14.30;;;12.80;;
47489;SDS011;33226;56.996;14.584;2022-08-19T05:35:49;13.95;;;12.70;;
47489;SDS011;33226;56.996;14.584;2022-08-19T05:38:18;13.23;;;11.52;;
47489;SDS011;33226;56.996;14.584;2022-08-19T05:40:44;12.60;;;11.50;;
47489;SDS011;33226;56.996;14.584;2022-08-19T05:43:14;12.93;;;10.65;;
47489;SDS011;33226;56.996;14.584;2022-08-19T05:45:41;11.52;;;10.32;;
47489;SDS011;33226;56.996;14.584;2022-08-19T05:48:08;11.82;;;10.20;;
47489;SDS011;33226;56.996;14.584;2022-08-19T05:50:36;11.40;;;10.10;;
47489;SDS011;33226;56.996;14.584;2022-08-19T05:53:03;11.48;;;8.75;;
47489;SDS011;33226;56.996;14.584;2022-08-19T05:55:29;10.20;;;9.18;;
47489;SDS011;33226;56.996;14.584;2022-08-19T05:57:56;9.68;;;8.77;;
47489;SDS011;33226;56.996;14.584;2022-08-19T06:00:22;14.95;;;9.02;;
47489;SDS011;33226;56.996;14.584;2022-08-19T06:02:48;12.73;;;8.35;;
47489;SDS011;33226;56.996;14.584;2022-08-19T06:05:14;8.98;;;7.63;;
47489;SDS011;33226;56.996;14.584;2022-08-19T06:07:39;10.90;;;7.93;;
47489;SDS011;33226;56.996;14.584;2022-08-19T06:10:06;8.13;;;7.15;;
47489;SDS011;33226;56.996;14.584;2022-08-19T06:12:33;7.07;;;6.38;;
47489;SDS011;33226;56.996;14.584;2022-08-19T06:15:01;7.53;;;6.75;;
47489;SDS011;33226;56.996;14.584;2022-08-19T06:17:32;8.82;;;6.85;;
47489;SDS011;33226;56.996;14.584;2022-08-19T06:19:59;8.20;;;6.70;;
47489;SDS011;33226;56.996;14.584;2022-08-19T06:22:26;8.80;;;6.50;;
47489;SDS011;33226;56.996;14.584;2022-08-19T06:24:52;8.55;;;6.30;;
47489;SDS011;33226;56.996;14.584;2022-08-19T06:27:19;7.28;;;6.55;;
47489;SDS011;33226;56.996;14.584;2022-08-19T06:29:45;6.97;;;6.05;;
47489;SDS011;33226;56.996;14.584;2022-08-19T06:32:11;6.90;;;6.10;;
47489;SDS011;33226;56.996;14.584;2022-08-19T06:34:39;10.73;;;5.70;;
47489;SDS011;33226;56.996;14.584;2022-08-19T06:37:06;9.02;;;5.97;;
47489;SDS011;33226;56.996;14.584;2022-08-19T06:39:33;8.50;;;5.57;;
47489;SDS011;33226;56.996;14.584;2022-08-19T06:42:04;6.85;;;5.85;;
47489;SDS011;33226;56.996;14.584;2022-08-19T06:44:34;8.52;;;5.85;;
47489;SDS011;33226;56.996;14.584;2022-08-19T06:47:01;8.35;;;5.50;;
47489;SDS011;33226;56.996;14.584;2022-08-19T06:49:31;7.35;;;5.80;;
47489;SDS011;33226;56.996;14.584;2022-08-19T06:51:57;7.72;;;5.43;;
47489;SDS011;33226;56.996;14.584;2022-08-19T06:54:23;5.85;;;5.25;;
47489;SDS011;33226;56.996;14.584;2022-08-19T06:56:50;8.25;;;5.78;;
47489;SDS011;33226;56.996;14.584;2022-08-19T06:59:17;6.53;;;5.03;;
47489;SDS011;33226;56.996;14.584;2022-08-19T07:01:46;11.65;;;5.93;;
47489;SDS011;33226;56.996;14.584;2022-08-19T07:04:14;10.02;;;5.78;;
47489;SDS011;33226;56.996;14.584;2022-08-19T07:06:42;10.88;;;5.22;;
47489;SDS011;33226;56.996;14.584;2022-08-19T07:09:09;8.27;;;5.13;;
47489;SDS011;33226;56.996;14.584;2022-08-19T07:11:37;9.05;;;5.63;;
47489;SDS011;33226;56.996;14.584;2022-08-19T07:14:03;8.68;;;5.47;;
47489;SDS011;33226;56.996;14.584;2022-08-19T07:16:31;8.02;;;5.45;;
47489;SDS011;33226;56.996;14.584;2022-08-19T07:18:57;10.52;;;5.20;;
47489;SDS011;33226;56.996;14.584;2022-08-19T07:21:24;7.47;;;4.95;;
47489;SDS011;33226;56.996;14.584;2022-08-19T07:23:52;15.18;;;6.25;;
47489;SDS011;33226;56.996;14.584;2022-08-19T07:26:24;10.00;;;5.35;;
47489;SDS011;33226;56.996;14.584;2022-08-19T07:28:53;7.00;;;5.30;;
47489;SDS011;33226;56.996;14.584;2022-08-19T07:31:21;8.43;;;4.85;;
47489;SDS011;33226;56.996;14.584;2022-08-19T07:33:48;13.10;;;5.40;;
47489;SDS011;33226;56.996;14.584;2022-08-19T07:36:16;11.43;;;5.40;;
47489;SDS011;33226;56.996;14.584;2022-08-19T07:38:44;7.70;;;5.18;;
47489;SDS011;33226;56.996;14.584;2022-08-19T07:41:14;7.13;;;5.28;;
47489;SDS011;33226;56.996;14.584;2022-08-19T07:43:46;11.13;;;5.17;;
47489;SDS011;33226;56.996;14.584;2022-08-19T07:46:13;7.68;;;5.15;;
47489;SDS011;33226;56.996;14.584;2022-08-19T07:48:39;6.85;;;5.57;;
47489;SDS011;33226;56.996;14.584;2022-08-19T07:51:13;6.82;;;5.10;;
47489;SDS011;33226;56.996;14.584;2022-08-19T07:53:40;9.80;;;5.57;;
47489;SDS011;33226;56.996;14.584;2022-08-19T07:56:08;9.60;;;5.90;;
47489;SDS011;33226;56.996;14.584;2022-08-19T07:58:36;9.85;;;4.97;;
47489;SDS011;33226;56.996;14.584;2022-08-19T08:01:05;5.88;;;5.28;;
47489;SDS011;33226;56.996;14.584;2022-08-19T08:03:33;5.90;;;5.28;;
47489;SDS011;33226;56.996;14.584;2022-08-19T08:09:02;6.65;;;5.32;;
47489;SDS011;33226;56.996;14.584;2022-08-19T08:11:38;7.75;;;4.88;;
47489;SDS011;33226;56.996;14.584;2022-08-19T08:14:07;5.85;;;5.07;;
47489;SDS011;33226;56.996;14.584;2022-08-19T08:16:37;11.57;;;5.38;;
47489;SDS011;33226;56.996;14.584;2022-08-19T08:19:04;5.85;;;4.97;;
47489;SDS011;33226;56.996;14.584;2022-08-19T08:21:31;9.70;;;5.72;;
47489;SDS011;33226;56.996;14.584;2022-08-19T08:23:57;11.23;;;4.85;;
47489;SDS011;33226;56.996;14.584;2022-08-19T08:26:23;8.25;;;4.78;;
47489;SDS011;33226;56.996;14.584;2022-08-19T08:28:50;8.18;;;4.63;;
47489;SDS011;33226;56.996;14.584;2022-08-19T08:31:16;5.63;;;5.03;;
47489;SDS011;33226;56.996;14.584;2022-08-19T08:33:43;5.93;;;5.25;;
47489;SDS011;33226;56.996;14.584;2022-08-19T08:36:10;12.07;;;5.40;;
47489;SDS011;33226;56.996;14.584;2022-08-19T08:38:38;7.60;;;5.00;;
47489;SDS011;33226;56.996;14.584;2022-08-19T08:41:27;11.82;;;4.75;;
47489;SDS011;33226;56.996;14.584;2022-08-19T08:43:53;6.35;;;4.57;;
47489;SDS011;33226;56.996;14.584;2022-08-19T08:51:24;5.45;;;4.47;;
47489;SDS011;33226;56.996;14.584;2022-08-19T08:53:55;5.38;;;4.38;;
47489;SDS011;33226;56.996;14.584;2022-08-19T08:56:21;5.25;;;4.70;;
47489;SDS011;33226;56.996;14.584;2022-08-19T08:58:52;9.52;;;5.00;;
47489;SDS011;33226;56.996;14.584;2022-08-19T09:01:28;11.48;;;4.97;;
47489;SDS011;33226;56.996;14.584;2022-08-19T09:03:54;6.97;;;4.40;;
47489;SDS011;33226;56.996;14.584;2022-08-19T09:14:08;9.38;;;4.72;;
47489;SDS011;33226;56.996;14.584;2022-08-19T09:16:57;6.97;;;4.63;;
47489;SDS011;33226;56.996;14.584;2022-08-19T09:19:24;4.95;;;4.50;;
47489;SDS011;33226;56.996;14.584;2022-08-19T09:21:49;5.07;;;4.45;;
47489;SDS011;33226;56.996;14.584;2022-08-19T09:24:15;5.20;;;4.70;;
47489;SDS011;33226;56.996;14.584;2022-08-19T09:26:41;5.88;;;4.10;;
47489;SDS011;33226;56.996;14.584;2022-08-19T09:29:08;6.93;;;4.22;;
47489;SDS011;33226;56.996;14.584;2022-08-19T09:31:35;9.15;;;4.60;;
47489;SDS011;33226;56.996;14.584;2022-08-19T09:34:02;8.25;;;4.60;;
47489;SDS011;33226;56.996;14.584;2022-08-19T09:36:29;6.53;;;4.50;;
47489;SDS011;33226;56.996;14.584;2022-08-19T09:38:59;9.63;;;5.18;;
47489;SDS011;33226;56.996;14.584;2022-08-19T09:41:27;5.82;;;4.90;;
47489;SDS011;33226;56.996;14.584;2022-08-19T09:43:54;7.63;;;4.68;;
47489;SDS011;33226;56.996;14.584;2022-08-19T09:46:21;10.45;;;5.00;;
47489;SDS011;33226;56.996;14.584;2022-08-19T09:48:51;10.00;;;5.07;;
47489;SDS011;33226;56.996;14.584;2022-08-19T09:51:20;10.35;;;5.20;;
47489;SDS011;33226;56.996;14.584;2022-08-19T09:53:47;9.00;;;5.38;;
47489;SDS011;33226;56.996;14.584;2022-08-19T09:56:19;14.10;;;6.13;;
47489;SDS011;33226;56.996;14.584;2022-08-19T09:58:46;6.78;;;5.35;;
47489;SDS011;33226;56.996;14.584;2022-08-19T10:01:17;10.88;;;6.03;;
47489;SDS011;33226;56.996;14.584;2022-08-19T10:03:46;12.57;;;6.20;;
47489;SDS011;33226;56.996;14.584;2022-08-19T10:06:13;7.18;;;5.70;;
47489;SDS011;33226;56.996;14.584;2022-08-19T10:08:39;9.60;;;6.38;;
47489;SDS011;33226;56.996;14.584;2022-08-19T10:11:05;10.35;;;6.15;;
47489;SDS011;33226;56.996;14.584;2022-08-19T10:13:31;6.38;;;5.78;;
47489;SDS011;33226;56.996;14.584;2022-08-19T10:16:07;9.65;;;6.25;;
47489;SDS011;33226;56.996;14.584;2022-08-19T10:18:35;9.25;;;6.53;;
47489;SDS011;33226;56.996;14.584;2022-08-19T10:21:06;7.75;;;6.57;;
47489;SDS011;33226;56.996;14.584;2022-08-19T10:23:37;13.65;;;6.95;;
47489;SDS011;33226;56.996;14.584;2022-08-19T10:26:05;10.30;;;6.97;;
47489;SDS011;33226;56.996;14.584;2022-08-19T10:28:35;11.05;;;6.55;;
47489;SDS011;33226;56.996;14.584;2022-08-19T10:31:05;8.82;;;6.78;;
47489;SDS011;33226;56.996;14.584;2022-08-19T10:33:32;8.48;;;6.55;;
47489;SDS011;33226;56.996;14.584;2022-08-19T10:35:59;10.48;;;6.53;;
47489;SDS011;33226;56.996;14.584;2022-08-19T10:38:29;9.93;;;6.97;;
47489;SDS011;33226;56.996;14.584;2022-08-19T10:40:56;9.07;;;6.65;;
47489;SDS011;33226;56.996;14.584;2022-08-19T10:43:22;9.20;;;7.15;;
47489;SDS011;33226;56.996;14.584;2022-08-19T10:45:53;9.80;;;6.80;;
47489;SDS011;33226;56.996;14.584;2022-08-19T10:48:23;9.50;;;7.07;;
47489;SDS011;33226;56.996;14.584;2022-08-19T10:50:49;7.90;;;6.95;;
47489;SDS011;33226;56.996;14.584;2022-08-19T10:53:33;11.02;;;6.78;;
47489;SDS011;33226;56.996;14.584;2022-08-19T10:55:58;13.18;;;6.93;;
47489;SDS011;33226;56.996;14.584;2022-08-19T10:58:42;11.38;;;7.35;;
47489;SDS011;33226;56.996;14.584;2022-08-19T11:01:09;11.85;;;7.00;;
47489;SDS011;33226;56.996;14.584;2022-08-19T11:03:35;10.93;;;6.97;;
47489;SDS011;33226;56.996;14.584;2022-08-19T11:06:05;13.02;;;6.90;;
47489;SDS011;33226;56.996;14.584;2022-08-19T11:08:33;9.18;;;6.80;;
47489;SDS011;33226;56.996;14.584;2022-08-19T11:11:01;10.93;;;6.63;;
47489;SDS011;33226;56.996;14.584;2022-08-19T11:13:29;8.50;;;6.53;;
47489;SDS011;33226;56.996;14.584;2022-08-19T11:15:59;10.95;;;7.30;;
47489;SDS011;33226;56.996;14.584;2022-08-19T11:18:27;9.05;;;6.75;;
47489;SDS011;33226;56.996;14.584;2022-08-19T11:20:53;9.43;;;7.40;;
47489;SDS011;33226;56.996;14.584;2022-08-19T11:23:19;10.95;;;7.18;;
47489;SDS011;33226;56.996;14.584;2022-08-19T11:25:45;9.35;;;7.03;;
47489;SDS011;33226;56.996;14.584;2022-08-19T11:28:12;12.25;;;6.82;;
47489;SDS011;33226;56.996;14.584;2022-08-19T11:30:38;10.43;;;7.10;;
47489;SDS011;33226;56.996;14.584;2022-08-19T11:33:04;11.07;;;7.03;;
47489;SDS011;33226;56.996;14.584;2022-08-19T11:35:29;8.75;;;7.38;;
47489;SDS011;33226;56.996;14.584;2022-08-19T11:37:55;8.80;;;7.45;;
47489;SDS011;33226;56.996;14.584;2022-08-19T11:40:26;13.20;;;7.05;;
47489;SDS011;33226;56.996;14.584;2022-08-19T11:42:52;10.40;;;7.43;;
47489;SDS011;33226;56.996;14.584;2022-08-19T11:45:21;17.65;;;7.78;;
47489;SDS011;33226;56.996;14.584;2022-08-19T11:47:52;11.88;;;7.15;;
47489;SDS011;33226;56.996;14.584;2022-08-19T11:50:18;11.18;;;7.38;;
47489;SDS011;33226;56.996;14.584;2022-08-19T11:52:44;8.85;;;7.18;;
47489;SDS011;33226;56.996;14.584;2022-08-19T11:55:11;9.35;;;7.10;;
47489;SDS011;33226;56.996;14.584;2022-08-19T11:57:41;10.50;;;7.45;;
47489;SDS011;33226;56.996;14.584;2022-08-19T12:00:09;12.02;;;7.80;;
47489;SDS011;33226;56.996;14.584;2022-08-19T12:02:37;11.45;;;6.55;;
47489;SDS011;33226;56.996;14.584;2022-08-19T12:05:03;8.35;;;5.35;;
47489;SDS011;33226;56.996;14.584;2022-08-19T12:07:29;7.63;;;5.70;;
47489;SDS011;33226;56.996;14.584;2022-08-19T12:09:58;8.05;;;5.55;;
47489;SDS011;33226;56.996;14.584;2022-08-19T12:12:25;8.18;;;5.43;;
47489;SDS011;33226;56.996;14.584;2022-08-19T12:14:52;9.75;;;5.68;;
47489;SDS011;33226;56.996;14.584;2022-08-19T12:17:22;5.72;;;5.22;;
47489;SDS011;33226;56.996;14.584;2022-08-19T12:19:48;9.30;;;5.88;;
47489;SDS011;33226;56.996;14.584;2022-08-19T12:22:14;22.65;;;6.38;;
47489;SDS011;33226;56.996;14.584;2022-08-19T12:24:40;59.53;;;6.85;;
47489;SDS011;33226;56.996;14.584;2022-08-19T12:27:05;11.13;;;7.22;;
47489;SDS011;33226;56.996;14.584;2022-08-19T12:29:31;6.13;;;4.68;;
47489;SDS011;33226;56.996;14.584;2022-08-19T12:31:57;7.03;;;6.35;;
47489;SDS011;33226;56.996;14.584;2022-08-19T12:34:31;6.05;;;5.03;;
47489;SDS011;33226;56.996;14.584;2022-08-19T12:36:58;6.47;;;5.55;;
47489;SDS011;33226;56.996;14.584;2022-08-19T12:39:26;5.97;;;4.90;;
47489;SDS011;33226;56.996;14.584;2022-08-19T12:41:52;6.35;;;5.75;;
47489;SDS011;33226;56.996;14.584;2022-08-19T12:44:18;6.60;;;5.90;;
47489;SDS011;33226;56.996;14.584;2022-08-19T12:46:43;6.35;;;5.70;;
47489;SDS011;33226;56.996;14.584;2022-08-19T12:49:09;6.25;;;5.72;;
47489;SDS011;33226;56.996;14.584;2022-08-19T12:51:35;7.35;;;6.13;;
47489;SDS011;33226;56.996;14.584;2022-08-19T12:54:01;9.48;;;6.75;;
47489;SDS011;33226;56.996;14.584;2022-08-19T12:56:28;6.40;;;5.88;;
47489;SDS011;33226;56.996;14.584;2022-08-19T12:58:54;6.90;;;6.30;;
47489;SDS011;33226;56.996;14.584;2022-08-19T13:01:20;6.35;;;5.60;;
47489;SDS011;33226;56.996;14.584;2022-08-19T13:03:46;8.30;;;5.72;;
47489;SDS011;33226;56.996;14.584;2022-08-19T13:06:12;15.48;;;6.38;;
47489;SDS011;33226;56.996;14.584;2022-08-19T13:08:38;6.68;;;5.72;;
47489;SDS011;33226;56.996;14.584;2022-08-19T13:11:12;6.13;;;5.38;;
47489;SDS011;33226;56.996;14.584;2022-08-19T13:13:43;6.10;;;4.90;;
47489;SDS011;33226;56.996;14.584;2022-08-19T13:16:12;6.78;;;5.38;;
47489;SDS011;33226;56.996;14.584;2022-08-19T13:18:38;6.18;;;5.68;;
47489;SDS011;33226;56.996;14.584;2022-08-19T13:21:05;6.43;;;5.90;;
47489;SDS011;33226;56.996;14.584;2022-08-19T13:23:33;7.20;;;6.05;;
47489;SDS011;33226;56.996;14.584;2022-08-19T13:26:01;6.82;;;6.30;;
47489;SDS011;33226;56.996;14.584;2022-08-19T13:28:29;8.18;;;5.82;;
47489;SDS011;33226;56.996;14.584;2022-08-19T13:31:16;6.70;;;5.95;;
47489;SDS011;33226;56.996;14.584;2022-08-19T13:34:02;7.53;;;6.88;;
47489;SDS011;33226;56.996;14.584;2022-08-19T13:36:31;7.18;;;6.40;;
47489;SDS011;33226;56.996;14.584;2022-08-19T13:38:57;7.38;;;6.22;;
47489;SDS011;33226;56.996;14.584;2022-08-19T13:41:23;7.63;;;6.93;;
47489;SDS011;33226;56.996;14.584;2022-08-19T13:43:50;9.38;;;6.95;;
47489;SDS011;33226;56.996;14.584;2022-08-19T13:46:15;8.57;;;7.78;;
47489;SDS011;33226;56.996;14.584;2022-08-19T13:48:41;12.23;;;7.82;;
47489;SDS011;33226;56.996;14.584;2022-08-19T13:51:07;7.80;;;6.72;;
47489;SDS011;33226;56.996;14.584;2022-08-19T13:53:37;6.65;;;5.95;;
47489;SDS011;33226;56.996;14.584;2022-08-19T13:56:07;9.15;;;6.00;;
47489;SDS011;33226;56.996;14.584;2022-08-19T13:58:36;10.25;;;6.60;;
47489;SDS011;33226;56.996;14.584;2022-08-19T14:01:03;8.55;;;5.70;;
47489;SDS011;33226;56.996;14.584;2022-08-19T14:03:29;34.92;;;6.88;;
47489;SDS011;33226;56.996;14.584;2022-08-19T14:05:56;9.90;;;5.43;;
47489;SDS011;33226;56.996;14.584;2022-08-19T14:08:22;5.97;;;5.28;;
47489;SDS011;33226;56.996;14.584;2022-08-19T14:10:48;6.40;;;5.75;;
47489;SDS011;33226;56.996;14.584;2022-08-19T14:13:16;6.47;;;5.88;;
47489;SDS011;33226;56.996;14.584;2022-08-19T14:15:44;7.97;;;6.07;;
47489;SDS011;33226;56.996;14.584;2022-08-19T14:18:10;17.73;;;6.63;;
47489;SDS011;33226;56.996;14.584;2022-08-19T14:20:36;9.15;;;6.05;;
47489;SDS011;33226;56.996;14.584;2022-08-19T14:23:02;8.90;;;6.07;;
47489;SDS011;33226;56.996;14.584;2022-08-19T14:25:30;10.30;;;6.55;;
47489;SDS011;33226;56.996;14.584;2022-08-19T14:27:57;8.93;;;5.85;;
47489;SDS011;33226;56.996;14.584;2022-08-19T14:30:30;8.32;;;5.85;;
47489;SDS011;33226;56.996;14.584;2022-08-19T14:32:58;6.55;;;5.85;;
47489;SDS011;33226;56.996;14.584;2022-08-19T14:35:25;8.10;;;6.15;;
47489;SDS011;33226;56.996;14.584;2022-08-19T14:37:52;6.50;;;5.90;;
47489;SDS011;33226;56.996;14.584;2022-08-19T14:40:20;6.45;;;5.85;;
47489;SDS011;33226;56.996;14.584;2022-08-19T14:42:52;7.53;;;6.20;;
47489;SDS011;33226;56.996;14.584;2022-08-19T14:45:24;5.97;;;5.57;;